Time;durP1;ratioP1;P1;durP2;ratioP2;P2;SDS_P1;SDS_P2;PMS_P1;PMS_P2;Temp;Humidity;BMP_temperature;BMP_pressure;BME280_temperature;BME280_humidity;BME280_pressure;Samples;Min_cycle;Max_cycle;Signal;HPM_P1;HPM_P2
2021/06/21 00:00:42;;;;;;;27.95;22.80;;;17.60;86.20;;;;;;5050509;28;20119;-73
2021/06/21 00:03:08;;;;;;;33.95;23.05;;;17.60;86.10;;;;;;5072444;28;20024;-74
2021/06/21 00:05:34;;;;;;;31.58;22.92;;;17.60;86.10;;;;;;5069254;28;20041;-74
2021/06/21 00:08:00;;;;;;;31.25;23.42;;;17.50;86.30;;;;;;5072945;28;20118;-73
2021/06/21 00:10:26;;;;;;;31.38;23.90;;;17.60;86.30;;;;;;5069159;28;20063;-75
2021/06/21 00:12:51;;;;;;;34.60;22.33;;;17.50;86.30;;;;;;5069460;28;20032;-73
2021/06/21 00:15:21;;;;;;;28.58;22.10;;;17.50;86.50;;;;;;5068902;28;20052;-73
2021/06/21 00:17:48;;;;;;;31.33;21.92;;;17.50;86.60;;;;;;5066268;28;20060;-73
2021/06/21 00:20:15;;;;;;;27.98;22.23;;;17.50;86.60;;;;;;5047377;28;20132;-73
2021/06/21 00:22:42;;;;;;;29.13;22.45;;;17.50;86.80;;;;;;5066347;28;20376;-77
2021/06/21 00:25:09;;;;;;;30.63;21.02;;;17.40;86.90;;;;;;5067463;28;20051;-74
2021/06/21 00:27:35;;;;;;;29.77;21.67;;;17.40;86.80;;;;;;5071627;28;20032;-73
2021/06/21 00:30:04;;;;;;;25.92;19.63;;;17.40;87.00;;;;;;5069464;28;20448;-73
2021/06/21 00:32:30;;;;;;;27.10;20.30;;;17.40;87.10;;;;;;5049098;28;20043;-73
2021/06/21 00:34:55;;;;;;;31.35;20.80;;;17.30;87.10;;;;;;5069040;28;20032;-73
2021/06/21 00:37:21;;;;;;;25.13;20.35;;;17.30;87.10;;;;;;5068775;28;20041;-73
2021/06/21 00:39:47;;;;;;;28.15;21.20;;;17.30;87.10;;;;;;5071905;28;20368;-73
2021/06/21 00:42:13;;;;;;;25.67;19.98;;;17.30;87.10;;;;;;5069325;28;20448;-73
2021/06/21 00:44:38;;;;;;;27.95;21.65;;;17.30;87.40;;;;;;5049913;28;20155;-77
2021/06/21 00:47:04;;;;;;;27.95;20.20;;;17.30;87.30;;;;;;5046908;28;20044;-74
2021/06/21 00:49:30;;;;;;;27.92;19.88;;;17.20;87.40;;;;;;5068768;28;20036;-74
2021/06/21 00:51:57;;;;;;;27.00;19.70;;;17.20;87.40;;;;;;5066515;28;20068;-73
2021/06/21 00:54:23;;;;;;;28.10;19.65;;;17.20;87.50;;;;;;5064485;28;20040;-72
2021/06/21 00:56:49;;;;;;;28.45;20.50;;;17.20;87.40;;;;;;5066948;28;20032;-73
2021/06/21 00:59:16;;;;;;;31.83;21.08;;;17.20;87.40;;;;;;5069068;28;20047;-74
2021/06/21 01:01:41;;;;;;;27.05;20.27;;;17.20;87.60;;;;;;5058894;28;20036;-76
2021/06/21 01:04:07;;;;;;;29.52;20.83;;;17.20;87.60;;;;;;5069414;28;20025;-73
2021/06/21 01:06:32;;;;;;;26.02;18.90;;;17.20;87.50;;;;;;5067143;28;20055;-73
2021/06/21 01:08:58;;;;;;;30.55;21.52;;;17.10;87.60;;;;;;5047014;28;20025;-72
2021/06/21 01:11:54;;;;;;;28.88;20.92;;;17.20;87.80;;;;;;5068828;28;20040;-74
2021/06/21 01:14:28;;;;;;;28.10;19.10;;;17.20;87.80;;;;;;5063526;28;20091;-74
2021/06/21 01:17:00;;;;;;;;;;;17.10;87.90;;;;;;5066896;28;20086;-74
2021/06/21 01:19:40;;;;;;;27.05;19.75;;;17.10;88.00;;;;;;5062539;28;20039;-75
2021/06/21 01:22:43;;;;;;;30.45;21.02;;;17.10;88.20;;;;;;5047682;28;20396;-72
2021/06/21 01:25:30;;;;;;;27.70;20.85;;;17.10;88.40;;;;;;5061260;28;20392;-73
2021/06/21 01:28:06;;;;;;;26.35;20.15;;;17.10;88.50;;;;;;5058174;28;20029;-74
2021/06/21 01:30:52;;;;;;;31.65;21.92;;;17.10;88.60;;;;;;5061188;28;20500;-73
2021/06/21 01:33:20;;;;;;;30.70;21.65;;;17.10;88.60;;;;;;5061601;28;20049;-73
2021/06/21 01:35:51;;;;;;;28.17;21.25;;;17.10;88.70;;;;;;5064704;28;20395;-72
2021/06/21 01:38:21;;;;;;;30.27;21.10;;;17.20;88.80;;;;;;5061369;28;20036;-73
2021/06/21 01:40:53;;;;;;;30.00;22.33;;;17.20;88.90;;;;;;5063786;28;20553;-73
2021/06/21 01:43:22;;;;;;;30.05;23.02;;;17.20;88.90;;;;;;5044809;28;20044;-73
2021/06/21 01:45:48;;;;;;;32.03;23.05;;;17.20;89.10;;;;;;5042467;28;20064;-74
2021/06/21 01:48:16;;;;;;;31.80;23.73;;;17.20;89.20;;;;;;5062173;28;20065;-73
2021/06/21 01:50:46;;;;;;;35.95;24.05;;;17.20;89.40;;;;;;5060623;28;20040;-73
2021/06/21 01:53:18;;;;;;;32.50;25.40;;;17.20;89.50;;;;;;5059469;28;20083;-74
2021/06/21 01:56:14;;;;;;;37.42;25.15;;;17.20;89.50;;;;;;5062062;28;20032;-74
2021/06/21 01:58:43;;;;;;;35.63;25.50;;;17.20;89.60;;;;;;5047318;28;20135;-73
2021/06/21 02:01:16;;;;;;;38.47;27.13;;;17.30;89.80;;;;;;5066802;28;20040;-76
2021/06/21 02:03:50;;;;;;;38.40;27.80;;;17.30;89.80;;;;;;5061350;28;20540;-73
2021/06/21 02:06:17;;;;;;;44.00;30.38;;;17.30;90.00;;;;;;5064364;28;20037;-73
2021/06/21 02:08:44;;;;;;;39.33;29.48;;;17.30;90.20;;;;;;5043964;28;20123;-73
2021/06/21 02:11:11;;;;;;;38.17;28.95;;;17.40;90.00;;;;;;5063560;28;20119;-73
2021/06/21 02:13:37;;;;;;;42.33;30.75;;;17.40;90.10;;;;;;5066481;28;20043;-75
2021/06/21 02:16:05;;;;;;;45.33;33.67;;;17.40;90.20;;;;;;5054707;28;20064;-74
2021/06/21 02:18:32;;;;;;;48.95;35.33;;;17.40;90.40;;;;;;5064286;28;20040;-75
2021/06/21 02:20:58;;;;;;;44.95;35.22;;;17.40;90.50;;;;;;5046140;28;20159;-74
2021/06/21 02:23:24;;;;;;;52.95;40.47;;;17.40;90.50;;;;;;5059984;28;20523;-74
2021/06/21 02:25:52;;;;;;;52.50;41.67;;;17.40;90.70;;;;;;5061387;28;20044;-76
2021/06/21 02:28:20;;;;;;;54.25;42.63;;;17.40;90.80;;;;;;5065270;28;20057;-75
2021/06/21 02:30:49;;;;;;;54.83;43.97;;;17.50;90.80;;;;;;5063232;28;20361;-74
2021/06/21 02:33:17;;;;;;;54.58;44.08;;;17.40;90.80;;;;;;5064459;28;20471;-73
2021/06/21 02:35:44;;;;;;;54.40;42.88;;;17.50;90.80;;;;;;5064286;28;20044;-73
2021/06/21 02:38:10;;;;;;;59.90;45.53;;;17.50;90.80;;;;;;5058175;28;20135;-73
2021/06/21 02:40:36;;;;;;;58.58;45.63;;;17.50;90.90;;;;;;5056278;28;20169;-74
2021/06/21 02:43:02;;;;;;;56.28;46.63;;;17.50;90.90;;;;;;5060506;28;20115;-78
2021/06/21 02:45:29;;;;;;;56.53;47.35;;;17.40;90.90;;;;;;5063675;28;20047;-73
2021/06/21 02:47:55;;;;;;;57.65;46.40;;;17.40;90.80;;;;;;5063496;28;20121;-79
2021/06/21 02:50:21;;;;;;;55.80;45.25;;;17.30;91.00;;;;;;5066199;28;20068;-73
2021/06/21 02:53:11;;;;;;;54.75;45.03;;;17.40;91.00;;;;;;5063110;28;20048;-80
2021/06/21 02:55:58;;;;;;;52.55;43.90;;;17.30;91.00;;;;;;5059298;28;20028;-74
2021/06/21 02:58:30;;;;;;;52.15;43.78;;;17.30;91.10;;;;;;5063186;28;20446;-74
2021/06/21 03:01:00;;;;;;;52.33;43.83;;;17.30;91.10;;;;;;5058451;28;20044;-73
2021/06/21 03:03:30;;;;;;;51.95;43.15;;;17.20;91.00;;;;;;5064897;28;20427;-73
2021/06/21 03:05:58;;;;;;;48.85;41.15;;;17.30;91.10;;;;;;5063359;28;20087;-73
2021/06/21 03:08:25;;;;;;;49.85;42.05;;;17.20;91.00;;;;;;5065478;28;20455;-76
2021/06/21 03:10:51;;;;;;;44.88;38.70;;;17.20;91.10;;;;;;5059542;28;20151;-74
2021/06/21 03:13:20;;;;;;;43.33;38.63;;;17.20;91.00;;;;;;5066710;28;20115;-73
2021/06/21 03:15:46;;;;;;;43.00;38.30;;;17.20;91.00;;;;;;5051497;28;20041;-73
2021/06/21 03:18:13;;;;;;;45.20;38.70;;;17.20;91.10;;;;;;5057949;28;20033;-75
2021/06/21 03:20:38;;;;;;;45.67;38.53;;;17.20;91.20;;;;;;5043985;28;20539;-73
2021/06/21 03:23:05;;;;;;;42.75;36.60;;;17.10;91.20;;;;;;5051390;28;20149;-74
2021/06/21 03:25:33;;;;;;;42.08;37.40;;;17.10;91.30;;;;;;5063834;28;20067;-73
2021/06/21 03:28:08;;;;;;;42.42;36.60;;;17.10;91.40;;;;;;5042503;28;20033;-73
2021/06/21 03:30:33;;;;;;;40.03;35.15;;;17.10;91.40;;;;;;5064250;28;20041;-73
2021/06/21 03:32:59;;;;;;;41.10;35.35;;;17.10;91.40;;;;;;5046268;28;20021;-74
2021/06/21 03:35:26;;;;;;;38.15;33.17;;;17.10;91.40;;;;;;5060594;28;20083;-73
2021/06/21 03:37:52;;;;;;;34.92;30.85;;;17.10;91.30;;;;;;5065405;28;20039;-76
2021/06/21 03:40:17;;;;;;;33.80;30.30;;;17.10;91.10;;;;;;5045964;28;20029;-76
2021/06/21 03:42:43;;;;;;;33.83;30.15;;;17.10;91.20;;;;;;5065059;28;20039;-73
2021/06/21 03:45:11;;;;;;;32.25;28.77;;;17.10;91.10;;;;;;5064360;28;20032;-74
2021/06/21 03:47:38;;;;;;;32.83;29.23;;;17.10;91.10;;;;;;5054509;28;20462;-73
2021/06/21 03:50:06;;;;;;;31.35;28.13;;;17.10;91.10;;;;;;5044013;28;20098;-74
2021/06/21 03:52:32;;;;;;;35.95;31.25;;;17.10;91.00;;;;;;5065518;28;20391;-73
2021/06/21 03:55:06;;;;;;;34.90;31.23;;;17.10;91.00;;;;;;5064839;28;20032;-73
2021/06/21 03:57:34;;;;;;;37.05;32.72;;;17.10;91.00;;;;;;5063795;28;20060;-73
2021/06/21 04:00:00;;;;;;;36.35;31.08;;;17.20;91.00;;;;;;5061072;28;20055;-73
2021/06/21 04:02:25;;;;;;;35.13;31.38;;;17.10;91.00;;;;;;5062973;28;20498;-74
2021/06/21 04:04:51;;;;;;;36.35;32.45;;;17.10;90.90;;;;;;5062277;28;20037;-72
2021/06/21 04:07:17;;;;;;;36.58;32.67;;;17.10;90.90;;;;;;5059653;28;20040;-73
2021/06/21 04:09:42;;;;;;;33.00;29.30;;;17.10;90.90;;;;;;5063890;28;20298;-73
2021/06/21 04:12:08;;;;;;;29.98;25.95;;;17.10;90.90;;;;;;5061092;28;20044;-73
2021/06/21 04:14:34;;;;;;;26.13;23.33;;;17.10;90.80;;;;;;5057329;28;20034;-73
2021/06/21 04:17:00;;;;;;;25.58;21.25;;;17.00;90.80;;;;;;5063339;28;20028;-74
2021/06/21 04:19:25;;;;;;;25.45;21.63;;;17.00;90.80;;;;;;5045602;28;20124;-73
2021/06/21 04:21:51;;;;;;;23.30;20.15;;;17.00;90.80;;;;;;5061077;28;20037;-73
2021/06/21 04:24:17;;;;;;;23.77;19.77;;;17.00;90.60;;;;;;5060322;28;20035;-73
2021/06/21 04:26:42;;;;;;;24.70;19.70;;;16.90;90.70;;;;;;5059474;28;20140;-76
2021/06/21 04:29:08;;;;;;;25.70;20.63;;;17.00;90.60;;;;;;5058040;28;20025;-74
2021/06/21 04:31:34;;;;;;;21.05;18.45;;;17.00;90.70;;;;;;5062905;28;20527;-73
2021/06/21 04:33:59;;;;;;;22.00;18.35;;;17.00;90.70;;;;;;5061375;28;20394;-72
2021/06/21 04:36:25;;;;;;;21.98;18.52;;;16.90;90.70;;;;;;5057242;28;20356;-73
2021/06/21 04:38:51;;;;;;;20.48;18.08;;;17.00;90.60;;;;;;5063104;28;20077;-78
2021/06/21 04:41:16;;;;;;;22.23;17.67;;;17.00;90.60;;;;;;5059137;28;20095;-74
2021/06/21 04:43:42;;;;;;;19.95;17.40;;;17.00;90.50;;;;;;5066804;28;20367;-73
2021/06/21 04:46:07;;;;;;;20.58;17.27;;;17.00;90.40;;;;;;5062841;28;20025;-77
2021/06/21 04:48:33;;;;;;;20.20;17.98;;;17.00;90.50;;;;;;5064729;28;20427;-73
2021/06/21 04:50:59;;;;;;;20.58;17.38;;;17.00;90.40;;;;;;5067790;28;20040;-73
2021/06/21 04:53:25;;;;;;;20.20;16.60;;;16.90;90.50;;;;;;5063688;28;20064;-74
2021/06/21 04:55:50;;;;;;;22.08;18.23;;;17.00;90.60;;;;;;5066169;28;20049;-73
2021/06/21 04:58:16;;;;;;;22.75;19.35;;;16.90;90.30;;;;;;5064815;28;20059;-78
2021/06/21 05:00:42;;;;;;;26.00;21.50;;;16.90;90.30;;;;;;5045713;28;20314;-79
2021/06/21 05:03:09;;;;;;;24.88;21.38;;;16.80;90.00;;;;;;5065853;28;20429;-75
2021/06/21 05:05:37;;;;;;;27.15;22.85;;;16.80;90.00;;;;;;5067893;28;20043;-75
2021/06/21 05:08:03;;;;;;;30.13;23.77;;;16.70;89.90;;;;;;5066507;28;20040;-74
2021/06/21 05:10:30;;;;;;;28.45;24.60;;;16.60;90.10;;;;;;5064749;28;20032;-74
2021/06/21 05:12:55;;;;;;;29.40;25.23;;;16.60;90.00;;;;;;5066308;28;20028;-79
2021/06/21 05:15:21;;;;;;;30.85;25.70;;;16.70;90.30;;;;;;5066743;28;20110;-73
2021/06/21 05:17:47;;;;;;;30.27;25.67;;;16.60;90.10;;;;;;5067887;28;20033;-73
2021/06/21 05:20:13;;;;;;;32.03;25.90;;;16.60;90.10;;;;;;5057179;28;20128;-73
2021/06/21 05:22:39;;;;;;;38.15;29.42;;;16.60;90.20;;;;;;5065343;28;20037;-74
2021/06/21 05:25:05;;;;;;;33.85;28.92;;;16.60;90.10;;;;;;5067471;28;20090;-73
2021/06/21 05:27:31;;;;;;;39.10;31.52;;;16.60;90.10;;;;;;5050086;28;20041;-73
2021/06/21 05:29:58;;;;;;;42.00;32.70;;;16.60;90.00;;;;;;5066083;28;20093;-73
2021/06/21 05:32:24;;;;;;;43.53;32.35;;;16.60;89.90;;;;;;5066308;28;20048;-73
2021/06/21 05:34:50;;;;;;;37.55;29.08;;;16.50;90.10;;;;;;5062304;28;20195;-70
2021/06/21 05:37:15;;;;;;;39.22;28.92;;;16.60;90.40;;;;;;5065881;28;20115;-70
2021/06/21 05:39:41;;;;;;;27.70;21.13;;;16.60;90.40;;;;;;5064866;28;20079;-71
2021/06/21 05:42:07;;;;;;;26.55;20.08;;;16.60;90.20;;;;;;5046082;28;20124;-72
2021/06/21 05:44:33;;;;;;;25.30;20.80;;;16.60;90.30;;;;;;5058892;28;20472;-71
2021/06/21 05:46:59;;;;;;;24.30;20.30;;;16.60;90.50;;;;;;5062856;28;20213;-71
2021/06/21 05:49:28;;;;;;;20.42;17.25;;;16.50;90.10;;;;;;5060117;28;20032;-70
2021/06/21 05:51:54;;;;;;;20.48;16.13;;;16.40;89.90;;;;;;5064776;28;20044;-70
2021/06/21 05:54:20;;;;;;;23.42;17.30;;;16.20;90.10;;;;;;5043253;28;20029;-70
2021/06/21 05:56:45;;;;;;;21.92;17.08;;;16.20;90.40;;;;;;5064695;28;20052;-70
2021/06/21 05:59:11;;;;;;;21.45;17.02;;;16.10;90.60;;;;;;5067594;28;20371;-71
2021/06/21 06:01:37;;;;;;;20.65;17.42;;;16.10;90.60;;;;;;5067977;28;20032;-70
2021/06/21 06:04:02;;;;;;;23.90;19.10;;;16.10;90.80;;;;;;5066951;28;20039;-74
2021/06/21 06:06:28;;;;;;;22.27;18.83;;;16.20;90.80;;;;;;5067998;28;20035;-70
2021/06/21 06:08:54;;;;;;;27.95;21.65;;;16.10;90.90;;;;;;5066222;28;20028;-71
2021/06/21 06:11:19;;;;;;;34.25;23.35;;;16.10;90.90;;;;;;5066360;28;20040;-73
2021/06/21 06:13:45;;;;;;;30.63;23.40;;;16.10;90.90;;;;;;5060230;28;20095;-73
2021/06/21 06:16:11;;;;;;;33.03;24.00;;;16.00;91.20;;;;;;5045276;28;20407;-70
2021/06/21 06:18:36;;;;;;;31.90;23.13;;;16.00;91.50;;;;;;5060563;28;20025;-72
2021/06/21 06:21:02;;;;;;;28.92;22.48;;;15.90;91.50;;;;;;5044563;28;20037;-70
2021/06/21 06:23:28;;;;;;;30.95;23.30;;;16.00;91.40;;;;;;5059944;28;20028;-70
2021/06/21 06:25:53;;;;;;;28.70;22.23;;;16.00;91.70;;;;;;5063286;28;20033;-70
2021/06/21 06:28:19;;;;;;;28.48;21.85;;;16.00;91.70;;;;;;5061717;28;20056;-70
2021/06/21 06:30:45;;;;;;;24.33;19.27;;;16.00;91.80;;;;;;5046047;28;20046;-71
2021/06/21 06:33:10;;;;;;;23.85;19.58;;;16.00;91.80;;;;;;5064249;28;20064;-69
2021/06/21 06:35:36;;;;;;;25.35;17.88;;;16.00;91.60;;;;;;5063093;28;20039;-70
2021/06/21 06:38:02;;;;;;;23.27;18.50;;;15.90;91.50;;;;;;5064888;28;20448;-71
2021/06/21 06:40:28;;;;;;;25.17;18.13;;;15.90;91.70;;;;;;5064425;28;20629;-70
2021/06/21 06:42:54;;;;;;;23.42;17.23;;;15.90;91.40;;;;;;5060784;28;20032;-71
2021/06/21 06:45:20;;;;;;;22.10;17.77;;;15.90;91.30;;;;;;5064745;28;20118;-70
2021/06/21 06:47:46;;;;;;;25.60;19.10;;;16.00;91.20;;;;;;5045435;28;20059;-70
2021/06/21 06:50:13;;;;;;;26.02;19.35;;;16.00;91.10;;;;;;5062596;28;20472;-69
2021/06/21 06:52:39;;;;;;;29.35;20.05;;;16.00;91.20;;;;;;5062224;28;20037;-70
2021/06/21 06:57:50;;;;;;;32.63;22.35;;;16.10;90.70;;;;;;5062841;28;20039;-70
2021/06/21 07:00:16;;;;;;;31.48;22.13;;;16.10;90.40;;;;;;5062020;28;20434;-72
2021/06/21 07:02:44;;;;;;;36.95;23.80;;;16.10;90.50;;;;;;5065919;28;20033;-69
2021/06/21 07:05:10;;;;;;;34.65;22.55;;;16.10;90.50;;;;;;5060108;28;20036;-71
2021/06/21 07:07:36;;;;;;;37.53;25.88;;;16.10;90.50;;;;;;5068105;28;20115;-71
2021/06/21 07:10:02;;;;;;;54.90;34.05;;;16.20;90.50;;;;;;5064092;28;20127;-71
2021/06/21 07:12:28;;;;;;;67.22;37.30;;;16.10;90.10;;;;;;5060181;28;20732;-69
2021/06/21 07:14:53;;;;;;;65.68;36.47;;;16.10;90.10;;;;;;5060730;28;20052;-69
2021/06/21 07:17:19;;;;;;;67.95;36.92;;;16.10;90.20;;;;;;5060044;28;20044;-70
2021/06/21 07:19:45;;;;;;;72.35;38.33;;;16.10;90.20;;;;;;5064310;28;20036;-69
2021/06/21 07:22:11;;;;;;;82.70;43.72;;;16.10;90.20;;;;;;5061978;28;20040;-69
2021/06/21 07:24:36;;;;;;;85.95;44.85;;;16.10;90.20;;;;;;5042752;28;20143;-69
2021/06/21 07:27:04;;;;;;;85.50;43.80;;;16.10;90.10;;;;;;5056452;28;20033;-70
2021/06/21 07:29:29;;;;;;;102.10;50.75;;;16.10;89.90;;;;;;5063749;28;20036;-69
2021/06/21 07:31:56;;;;;;;102.55;50.75;;;16.10;89.40;;;;;;5059865;28;20040;-69
2021/06/21 07:34:21;;;;;;;107.32;54.83;;;16.10;89.60;;;;;;5043782;28;20044;-71
2021/06/21 07:36:47;;;;;;;114.03;57.13;;;16.10;89.90;;;;;;5060894;28;20459;-70
2021/06/21 07:39:13;;;;;;;103.18;53.65;;;16.00;90.00;;;;;;5056437;28;20396;-69
2021/06/21 07:41:38;;;;;;;109.72;53.67;;;16.00;89.90;;;;;;5062558;28;20059;-69
2021/06/21 07:44:04;;;;;;;100.50;48.88;;;16.00;90.20;;;;;;5058233;28;20052;-72
2021/06/21 07:46:32;;;;;;;84.50;45.00;;;16.10;90.10;;;;;;5062568;28;20031;-70
2021/06/21 07:48:57;;;;;;;77.00;41.33;;;16.10;90.20;;;;;;5062967;28;20093;-70
2021/06/21 07:51:24;;;;;;;74.75;40.53;;;16.20;90.00;;;;;;5062494;28;20041;-71
2021/06/21 07:53:53;;;;;;;73.85;37.92;;;16.10;89.70;;;;;;5058294;28;20119;-71
2021/06/21 07:56:21;;;;;;;77.97;38.47;;;16.10;90.20;;;;;;5062899;28;20446;-70
2021/06/21 07:58:47;;;;;;;77.47;39.40;;;16.10;89.50;;;;;;5060006;28;20029;-70
2021/06/21 08:01:13;;;;;;;71.20;37.90;;;16.10;89.80;;;;;;5046331;28;20086;-71
2021/06/21 08:03:42;;;;;;;67.30;37.25;;;16.10;90.20;;;;;;5061255;28;20079;-71
2021/06/21 08:06:11;;;;;;;64.30;35.25;;;16.10;89.80;;;;;;5047331;28;20055;-71
2021/06/21 08:08:38;;;;;;;67.80;36.22;;;16.10;89.90;;;;;;5056061;28;20391;-71
2021/06/21 08:11:04;;;;;;;71.53;36.67;;;16.10;89.80;;;;;;5060888;28;20538;-73
2021/06/21 08:13:30;;;;;;;84.15;42.40;;;16.20;89.50;;;;;;5045032;28;20037;-71
2021/06/21 08:15:55;;;;;;;100.78;47.60;;;16.10;89.60;;;;;;5042934;28;20396;-71
2021/06/21 08:18:21;;;;;;;107.93;48.33;;;16.10;89.60;;;;;;5064102;28;20033;-73
2021/06/21 08:20:48;;;;;;;101.82;46.55;;;16.20;90.00;;;;;;5068835;28;21547;-70
2021/06/21 08:23:15;;;;;;;98.20;47.30;;;16.20;89.80;;;;;;5063024;28;20052;-70
2021/06/21 08:25:42;;;;;;;106.68;49.35;;;16.40;90.00;;;;;;5070353;28;20468;-72
2021/06/21 08:28:08;;;;;;;98.32;48.55;;;16.50;89.60;;;;;;5046401;28;20057;-70
2021/06/21 08:30:34;;;;;;;108.95;51.80;;;16.60;89.20;;;;;;5067212;28;20032;-70
2021/06/21 08:33:00;;;;;;;105.22;50.25;;;16.50;89.10;;;;;;5064560;28;20068;-72
2021/06/21 08:35:26;;;;;;;106.43;50.13;;;16.50;88.90;;;;;;5055635;28;20112;-70
2021/06/21 08:37:52;;;;;;;101.35;48.78;;;16.60;89.60;;;;;;5061059;28;20044;-69
2021/06/21 08:40:19;;;;;;;98.68;47.30;;;16.60;89.00;;;;;;5065719;28;20040;-73
2021/06/21 08:42:45;;;;;;;92.82;42.75;;;16.60;89.00;;;;;;5065709;28;20115;-73
2021/06/21 08:45:11;;;;;;;79.65;40.17;;;16.50;88.60;;;;;;5060898;28;20120;-71
2021/06/21 08:47:38;;;;;;;60.25;30.15;;;16.50;89.20;;;;;;5062923;28;20171;-70
2021/06/21 08:50:06;;;;;;;43.58;25.02;;;16.40;89.10;;;;;;5059489;28;20451;-70
2021/06/21 08:52:32;;;;;;;38.88;22.73;;;16.40;89.00;;;;;;5068879;28;20035;-71
2021/06/21 08:55:04;;;;;;;43.53;23.60;;;16.30;89.10;;;;;;5035403;28;20187;-70
2021/06/21 08:57:32;;;;;;;49.75;24.80;;;16.30;89.90;;;;;;5050810;28;20060;-74
2021/06/21 08:59:58;;;;;;;52.72;27.15;;;16.40;89.30;;;;;;5056185;28;20484;-75
2021/06/21 09:02:24;;;;;;;58.63;31.27;;;16.50;89.80;;;;;;5055837;28;20543;-72
2021/06/21 09:04:50;;;;;;;56.55;30.00;;;16.60;89.40;;;;;;5035371;28;20027;-75
2021/06/21 09:07:20;;;;;;;38.25;22.63;;;16.60;89.20;;;;;;5048711;28;20500;-72
2021/06/21 09:09:47;;;;;;;24.73;16.40;;;16.60;88.70;;;;;;5049122;28;20553;-75
2021/06/21 09:12:29;;;;;;;22.42;14.20;;;16.40;88.80;;;;;;5054169;28;20051;-75
2021/06/21 09:14:56;;;;;;;21.58;13.13;;;16.40;88.90;;;;;;5051220;28;20664;-72
2021/06/21 09:17:24;;;;;;;22.20;14.55;;;16.40;88.90;;;;;;5053452;28;20033;-76
2021/06/21 09:19:54;;;;;;;23.30;13.82;;;16.30;88.60;;;;;;5058827;28;20252;-72
2021/06/21 09:22:50;;;;;;;25.73;15.25;;;16.40;88.70;;;;;;5066325;28;20040;-71
2021/06/21 09:25:16;;;;;;;29.80;16.13;;;16.40;88.60;;;;;;5055554;28;20492;-69
2021/06/21 09:27:52;;;;;;;26.15;14.68;;;16.40;88.50;;;;;;5061368;28;20114;-71
2021/06/21 09:30:19;;;;;;;26.50;15.57;;;16.50;88.20;;;;;;5065365;28;20051;-70
2021/06/21 09:32:51;;;;;;;33.08;17.75;;;16.50;88.30;;;;;;5068788;28;20357;-70
2021/06/21 09:35:29;;;;;;;37.65;21.30;;;16.40;88.10;;;;;;5064788;28;20059;-72
2021/06/21 09:37:56;;;;;;;65.05;31.55;;;16.40;88.30;;;;;;5066333;28;20037;-70
2021/06/21 09:40:31;;;;;;;62.17;31.33;;;16.30;88.10;;;;;;5042993;28;20067;-70
2021/06/21 09:42:58;;;;;;;75.50;34.60;;;16.40;88.50;;;;;;5065826;28;20048;-70
2021/06/21 09:45:24;;;;;;;75.15;36.08;;;16.50;88.80;;;;;;5057615;28;20119;-70
2021/06/21 09:47:50;;;;;;;84.28;40.03;;;16.60;88.70;;;;;;5062832;28;20032;-72
2021/06/21 09:50:23;;;;;;;98.75;46.05;;;16.60;88.10;;;;;;5050574;28;20049;-71
2021/06/21 09:53:01;;;;;;;94.78;45.83;;;16.50;87.50;;;;;;5045259;28;20024;-71
2021/06/21 09:55:45;;;;;;;84.22;39.58;;;16.40;87.60;;;;;;5060464;28;20054;-70
2021/06/21 09:58:20;;;;;;;70.57;34.70;;;16.60;87.50;;;;;;5062219;28;20037;-69
2021/06/21 10:00:47;;;;;;;57.47;28.52;;;16.60;87.40;;;;;;5063189;28;20036;-69
2021/06/21 10:03:19;;;;;;;43.17;22.55;;;16.70;87.10;;;;;;5063352;28;20475;-71
2021/06/21 10:06:05;;;;;;;26.17;15.73;;;16.80;87.40;;;;;;5063129;28;20047;-75
2021/06/21 10:08:46;;;;;;;24.30;13.68;;;16.80;86.80;;;;;;5061897;28;20082;-71
2021/06/21 10:11:28;;;;;;;17.73;10.57;;;16.80;86.90;;;;;;5056286;28;20059;-70
2021/06/21 10:13:58;;;;;;;16.75;9.48;;;16.70;86.20;;;;;;5045072;28;20047;-70
2021/06/21 10:16:24;;;;;;;18.02;10.63;;;16.70;86.50;;;;;;5066635;28;20044;-71
2021/06/21 10:18:50;;;;;;;23.60;13.40;;;16.70;86.80;;;;;;5055650;28;20141;-73
2021/06/21 10:21:16;;;;;;;29.65;17.05;;;16.60;86.30;;;;;;5062989;28;20478;-71
2021/06/21 10:23:42;;;;;;;33.00;19.85;;;16.60;86.60;;;;;;5043842;28;20376;-70
2021/06/21 10:26:09;;;;;;;37.22;20.88;;;16.50;86.90;;;;;;5058648;28;20037;-71
2021/06/21 10:28:35;;;;;;;58.53;30.17;;;16.60;86.90;;;;;;5065210;28;20044;-71
2021/06/21 10:31:02;;;;;;;71.15;34.47;;;16.60;86.30;;;;;;5059679;28;20047;-71
2021/06/21 10:33:29;;;;;;;70.30;33.50;;;16.60;86.70;;;;;;5050214;28;20098;-71
2021/06/21 10:35:59;;;;;;;64.15;32.58;;;16.60;87.00;;;;;;5063241;28;20025;-73
2021/06/21 10:38:25;;;;;;;65.15;31.60;;;16.80;86.40;;;;;;5067696;28;20471;-71
2021/06/21 10:40:56;;;;;;;69.55;33.33;;;16.80;86.30;;;;;;5062178;28;20036;-70
2021/06/21 10:43:42;;;;;;;62.70;30.08;;;16.70;86.10;;;;;;5044852;28;20036;-70
2021/06/21 10:46:14;;;;;;;62.38;30.67;;;16.90;86.00;;;;;;5034198;28;20040;-74
2021/06/21 10:49:00;;;;;;;66.53;31.02;;;16.90;85.90;;;;;;5047217;28;20037;-71
2021/06/21 10:51:40;;;;;;;62.92;31.73;;;16.80;85.80;;;;;;5063195;28;20041;-71
2021/06/21 10:54:22;;;;;;;67.05;30.80;;;17.10;85.70;;;;;;5061127;28;20039;-71
2021/06/21 10:56:54;;;;;;;65.93;31.15;;;17.10;86.10;;;;;;5064547;28;20029;-77
2021/06/21 10:59:24;;;;;;;57.17;30.25;;;17.10;85.50;;;;;;5061965;28;20024;-70
2021/06/21 11:01:59;;;;;;;52.22;28.38;;;17.10;85.70;;;;;;5047417;28;20430;-70
2021/06/21 11:04:37;;;;;;;52.47;27.25;;;17.00;85.10;;;;;;5061907;28;20086;-70
2021/06/21 11:07:21;;;;;;;48.72;27.83;;;17.10;85.30;;;;;;5061300;28;20123;-72
2021/06/21 11:09:54;;;;;;;44.30;24.20;;;17.20;85.80;;;;;;5061361;28;20040;-72
2021/06/21 11:12:23;;;;;;;41.67;22.50;;;17.20;84.80;;;;;;5059195;28;20039;-72
2021/06/21 11:15:07;;;;;;;35.08;18.30;;;17.10;85.30;;;;;;5062469;28;20077;-76
2021/06/21 11:17:54;;;;;;;22.27;12.27;;;17.20;85.40;;;;;;5062162;28;20140;-73
2021/06/21 11:20:44;;;;;;;17.50;9.00;;;17.20;83.90;;;;;;5063293;28;20433;-74
2021/06/21 11:23:43;;;;;;;14.45;6.60;;;17.40;84.70;;;;;;5050764;28;20123;-73
2021/06/21 11:26:09;;;;;;;12.55;6.15;;;17.50;84.50;;;;;;5057802;28;20093;-75
2021/06/21 11:28:43;;;;;;;8.95;5.20;;;17.70;84.70;;;;;;5064439;28;20045;-73
2021/06/21 11:31:18;;;;;;;11.20;5.82;;;17.80;82.70;;;;;;5066296;28;20052;-76
2021/06/21 11:33:52;;;;;;;13.60;6.95;;;17.60;82.70;;;;;;5062226;28;20067;-73
2021/06/21 11:36:40;;;;;;;21.88;10.60;;;17.60;83.80;;;;;;5061099;28;20067;-72
2021/06/21 11:39:22;;;;;;;21.90;10.95;;;17.70;83.80;;;;;;5035309;28;20035;-73
2021/06/21 11:42:03;;;;;;;21.95;11.30;;;17.70;83.10;;;;;;5060120;28;20499;-73
2021/06/21 11:44:38;;;;;;;23.35;12.30;;;17.60;83.60;;;;;;5059971;28;20033;-74
2021/06/21 11:47:29;;;;;;;35.08;20.80;;;17.60;83.70;;;;;;5061733;28;20502;-72
2021/06/21 11:50:16;;;;;;;38.95;23.60;;;17.60;84.30;;;;;;5060664;28;20039;-72
2021/06/21 11:52:42;;;;;;;25.83;19.67;;;17.60;84.30;;;;;;5044943;28;20039;-72
2021/06/21 11:55:17;;;;;;;22.98;18.10;;;17.50;85.00;;;;;;5061977;28;20035;-77
2021/06/21 11:57:47;;;;;;;;;;;17.20;85.80;;;;;;5063471;28;20029;-71
2021/06/21 12:00:15;;;;;;;21.80;18.35;;;17.20;86.40;;;;;;5063929;28;19969;-71
2021/06/21 12:02:41;;;;;;;24.05;19.88;;;17.10;86.70;;;;;;5061219;28;20045;-73
2021/06/21 12:05:09;;;;;;;26.90;20.95;;;17.00;86.90;;;;;;5061953;28;20094;-75
2021/06/21 12:07:38;;;;;;;27.88;21.63;;;17.00;87.40;;;;;;5061684;28;20044;-73
2021/06/21 12:10:07;;;;;;;31.75;22.92;;;17.10;87.80;;;;;;5041174;28;20066;-74
2021/06/21 12:12:35;;;;;;;24.58;19.48;;;17.10;86.80;;;;;;5041069;28;21247;-71
2021/06/21 12:15:04;;;;;;;26.90;18.90;;;17.10;85.60;;;;;;5066411;28;20559;-72
2021/06/21 12:17:31;;;;;;;27.33;18.58;;;17.10;86.10;;;;;;5051273;28;20041;-79
2021/06/21 12:20:14;;;;;;;25.65;19.65;;;17.10;86.10;;;;;;5060309;28;20029;-76
2021/06/21 12:22:41;;;;;;;25.52;19.23;;;17.30;85.90;;;;;;5062945;28;21421;-73
2021/06/21 12:25:22;;;;;;;21.38;17.17;;;17.40;85.60;;;;;;5054191;28;20112;-73
2021/06/21 12:27:49;;;;;;;20.10;15.40;;;17.40;85.00;;;;;;5054745;28;20033;-77
2021/06/21 12:30:14;;;;;;;20.67;15.32;;;17.40;84.70;;;;;;5062968;28;20029;-72
2021/06/21 12:32:41;;;;;;;25.88;16.23;;;17.20;84.80;;;;;;5060553;28;20041;-72
2021/06/21 12:35:08;;;;;;;26.27;18.40;;;17.00;85.00;;;;;;5062063;28;20059;-76
2021/06/21 12:37:39;;;;;;;25.45;18.17;;;17.10;85.30;;;;;;5062053;28;20055;-73
2021/06/21 12:40:18;;;;;;;27.75;17.70;;;17.20;85.20;;;;;;5062902;28;20033;-72